55.1F
Current conditions from King Hill
Updated every 5 minutes
 
  Tuesday July 16, 2019

Observations for Westford

Westford

44° 37' 38"N, 73° 02' 29"W, Elevation 850 ft.
Eastern Time

Hourly observations for the last 72 hours

Date Time Temperature (°F) Humi-
dity

(%)
Wind
(mph)
Pressure Rain (in)
Air Dew 6 Hour 1 Hr 3 Hr 6 Hr Day
Alt
(in)
Sea
Level

(mb)
Max Min
16 02:00 55.5 54.1 69.9 55.5 95 Calm 30.00 1015.9 0.00
16 01:00 56.4 55.0 95 Calm 30.00 1016.0 0.00
16 00:00 56.7 55.0 94 Calm 30.00 1016.1 0.00
15 23:00 57.3 55.3 93 Calm 29.99 1015.5 0.00
15 22:00 59.0 56.4 91 Calm 29.99 1015.6 0.00
15 21:00 69.0 61.5 77 Calm 29.97 1015.1 0.00
15 20:00 74.3 63.1 78.7 70.0 68 Calm 29.97 1014.9 0.00
15 19:00 75.7 64.0 67 Calm 29.97 1015.0 0.00
15 18:00 76.1 59.8 57 Calm 29.97 1014.9 0.00
15 17:00 78.7 61.7 56 NW 0 G 8 29.97 1015.1 0.00
15 16:00 77.3 59.9 55 W 0 G 4 29.99 1015.5 0.00
15 15:00 77.0 60.1 56 WNW 0 G 3 30.00 1015.8 0.00
15 14:00 74.6 57.9 77.1 63.8 56 Calm 30.00 1016.0 0.00
15 13:00 73.4 62.6 69 W 1 G 8 30.01 1016.3 0.00
15 12:00 72.9 60.9 66 WNW 0 G 5 30.01 1016.4 0.00
15 11:00 68.4 59.4 73 WNW 1 G 6 30.01 1016.3 0.00
15 10:00 67.0 60.3 79 Calm 30.01 1016.2 0.00
15 09:00 64.4 59.5 84 Calm 30.00 1016.1 0.00
15 08:00 58.8 57.1 64.0 54.3 94 Calm 29.99 1015.7 0.00
15 07:00 54.9 53.2 94 Calm 29.99 1015.5 0.00
15 06:00 54.5 52.5 93 Calm 29.97 1015.0 0.00
15 05:00 56.8 53.6 89 Calm 29.97 1014.9 0.00
15 04:00 56.8 54.2 91 Calm 29.97 1014.8 0.00
15 03:00 56.6 54.3 92 Calm 29.96 1014.7 0.00
15 02:00 55.9 53.9 67.7 55.7 93 Calm 29.95 1014.2 0.00
15 01:00 56.2 53.9 92 Calm 29.95 1014.4 0.00
15 00:00 58.4 54.9 88 Calm 29.95 1014.4 0.00
14 23:00 60.1 56.2 87 Calm 29.95 1014.2 0.00
14 22:00 64.2 57.2 78 Calm 29.94 1013.9 0.00
14 21:00 67.5 57.8 71 NW 1 G 7 29.92 1013.2 0.00
14 20:00 69.2 59.4 76.3 67.6 71 NW 1 G 13 29.90 1012.4 0.00
14 19:00 71.3 61.8 72 NW 1 G 12 29.88 1012.0 0.00
14 18:00 71.2 61.7 72 NNW 0 G 9 29.88 1011.8 0.00
14 17:00 73.7 62.9 69 WNW 1 G 11 29.88 1011.7 0.00
14 16:00 73.9 61.8 66 WNW 0 G 6 29.86 1011.2 0.00
14 15:00 75.6 66.3 73 NW 2 G 15 29.87 1011.4 0.00
14 14:00 74.4 63.2 76.7 67.4 68 NW 0 G 10 29.86 1011.3 0.00
14 13:00 73.6 63.6 71 WNW 3 G 18 29.86 1011.3 0.00
14 12:00 74.9 64.5 70 WNW 1 G 6 29.85 1011.0 0.00
14 11:00 73.7 64.5 73 WNW 0 G 9 29.84 1010.5 0.00
14 10:00 69.9 64.2 82 Calm 29.83 1010.1 0.00
14 09:00 67.7 63.0 85 WNW 0 G 4 29.82 1009.8 0.00
14 08:00 65.6 63.2 67.9 60.2 92 Calm 29.81 1009.7 0.00
14 07:00 63.3 61.8 95 Calm 29.80 1009.2 0.00
14 06:00 62.4 60.9 95 Calm 29.79 1008.8 0.00
14 05:00 60.9 59.2 94 Calm 29.78 1008.4 0.00
14 04:00 60.5 58.5 93 Calm 29.77 1008.1 0.00
14 03:00 61.1 58.1 90 Calm 29.77 1008.2 0.00
14 02:00 64.4 60.1 74.5 61.4 86 Calm 29.78 1008.5 0.01 0.02 0.00
14 01:00 67.4 61.4 81 Calm 29.79 1008.9 0.00
14 00:00 69.0 61.1 76 SSW 0 G 5 29.80 1009.0 0.01 0.01
13 23:00 69.2 58.2 68 Calm 29.80 1009.1 0.01 0.01
13 22:00 67.8 56.0 66 WNW 1 G 8 29.80 1009.0 0.01
13 21:00 74.4 61.9 65 W 0 G 2 29.77 1008.2 0.01 0.01
13 20:00 77.2 63.6 83.0 74.5 63 WNW 1 G 7 29.75 1007.6 0.03 0.03 0.01
13 19:00 81.5 68.6 65 SW 0 G 1 29.75 1007.6 0.01
13 18:00 82.3 68.5 63 SSW 2 G 10 29.76 1007.8 0.03 0.01
13 17:00 82.0 70.0 67 Calm 29.78 1008.5 0.00
13 16:00 81.7 66.5 60 W 1 G 9 29.79 1008.8 0.00
13 15:00 80.5 66.3 62 W 1 G 8 29.80 1009.3 0.00
13 14:00 78.6 65.9 80.7 66.8 65 W 1 G 9 29.81 1009.3 0.00
13 13:00 75.5 67.0 75 W 0 G 6 29.82 1009.8 0.00
13 12:00 76.5 68.4 76 SSW 0 G 5 29.83 1010.4 0.00
13 11:00 72.8 65.5 78 W 0 G 7 29.84 1010.4 0.00
13 10:00 71.3 64.8 80 W 1 G 10 29.84 1010.6 0.00
13 09:00 67.3 65.5 94 Calm 29.83 1010.4 0.00
13 08:00 63.1 61.9 66.9 58.4 96 Calm 29.83 1010.0 0.00
13 07:00 59.5 58.4 96 Calm 29.80 1009.3 0.00
13 06:00 58.7 57.6 96 Calm 29.79 1009.0 0.00
13 05:00 59.8 58.7 96 Calm 29.79 1008.8 0.00
13 04:00 61.4 60.0 95 Calm 29.78 1008.5 0.00
13 03:00 62.0 60.6 95 Calm 29.78 1008.5 0.00

Data generated by WxSolution Version 1.9.1.7, Build 2018.11.24.


 
 
Current Radar Loop:

Copyright © WestfordWeather.net 2007-2019. All rights reserved.